Time;durP1;ratioP1;P1;durP2;ratioP2;P2;SDS_P1;SDS_P2;PMS_P1;PMS_P2;Temp;Humidity;BMP_temperature;BMP_pressure;BME280_temperature;BME280_humidity;BME280_pressure;Samples;Min_cycle;Max_cycle;Signal;HPM_P1;HPM_P2
2022/07/23 00:01:28;;;;;;;5.47;4.15;;;;;;;19.63;66.11;100696.94;5126238;28;20409;-81
2022/07/23 00:03:54;;;;;;;5.75;4.15;;;;;;;19.63;65.61;100696.09;5110821;28;20062;-81
2022/07/23 00:06:20;;;;;;;5.43;4.30;;;;;;;19.53;67.02;100698.25;5108190;28;20524;-81
2022/07/23 00:08:45;;;;;;;4.53;3.70;;;;;;;19.43;66.34;100684.38;5127828;28;20031;-81
2022/07/23 00:11:11;;;;;;;4.88;3.90;;;;;;;19.37;66.95;100692.66;5126087;28;20066;-81
2022/07/23 00:13:36;;;;;;;9.88;4.22;;;;;;;19.33;67.27;100687.47;5108221;28;20046;-82
2022/07/23 00:16:02;;;;;;;6.35;4.43;;;;;;;19.30;67.89;100688.47;5128507;28;20058;-81
2022/07/23 00:18:27;;;;;;;6.15;4.05;;;;;;;19.30;67.10;100684.94;5125094;27;20038;-82
2022/07/23 00:20:52;;;;;;;4.35;3.72;;;;;;;19.29;67.25;100691.22;5097011;27;20038;-81
2022/07/23 00:23:18;;;;;;;6.45;4.25;;;;;;;19.29;67.18;100691.22;5130008;27;20122;-81
2022/07/23 00:25:44;;;;;;;6.65;4.45;;;;;;;19.32;67.20;100691.09;5131681;27;20100;-81
2022/07/23 00:28:10;;;;;;;4.75;3.78;;;;;;;19.32;67.32;100696.44;5097163;27;20517;-81
2022/07/23 00:30:36;;;;;;;6.00;3.97;;;;;;;19.32;67.35;100691.97;5129572;27;20036;-82
2022/07/23 00:33:04;;;;;;;5.65;4.40;;;;;;;19.34;67.07;100694.59;5131310;27;20057;-81
2022/07/23 00:35:32;;;;;;;5.15;4.22;;;;;;;19.39;67.28;100690.78;5129949;27;20035;-81
2022/07/23 00:37:58;;;;;;;6.20;4.38;;;;;;;19.33;67.33;100698.19;5131418;27;20062;-81
2022/07/23 00:40:25;;;;;;;4.22;3.45;;;;;;;19.30;67.14;100699.16;5126842;27;20035;-81
2022/07/23 00:42:50;;;;;;;5.97;3.88;;;;;;;19.32;67.18;100691.09;5093486;28;20040;-81
2022/07/23 00:45:17;;;;;;;5.28;4.22;;;;;;;19.26;67.51;100693.09;5090395;28;20035;-81
2022/07/23 00:47:43;;;;;;;5.13;4.32;;;;;;;19.19;67.30;100696.06;5113415;27;20510;-82
2022/07/23 00:50:09;;;;;;;6.20;3.88;;;;;;;19.10;67.75;100699.97;5130155;27;20129;-81
2022/07/23 00:52:36;;;;;;;7.68;4.00;;;;;;;19.09;67.94;100697.34;5129362;27;20035;-81
2022/07/23 00:55:03;;;;;;;7.28;4.90;;;;;;;19.00;68.24;100690.56;5131146;27;20031;-81
2022/07/23 00:57:28;;;;;;;5.13;3.65;;;;;;;18.90;68.97;100695.38;5093846;28;20481;-81
2022/07/23 00:59:53;;;;;;;5.13;4.22;;;;;;;18.92;68.69;100700.69;5091126;27;20043;-81
2022/07/23 01:02:19;;;;;;;5.15;4.10;;;;;;;18.89;69.27;100692.75;5130386;27;20030;-82
2022/07/23 01:04:45;;;;;;;8.82;4.05;;;;;;;18.96;68.90;100696.94;5129324;27;20032;-81
2022/07/23 01:07:10;;;;;;;4.80;4.05;;;;;;;18.96;68.70;100691.59;5095390;27;20118;-81
2022/07/23 01:09:37;;;;;;;6.20;4.13;;;;;;;18.95;68.77;100697.88;5113175;27;20039;-82
2022/07/23 01:12:03;;;;;;;5.18;4.32;;;;;;;18.95;68.85;100689.88;5128666;27;20024;-81
2022/07/23 01:14:28;;;;;;;5.10;3.97;;;;;;;18.95;68.92;100688.06;5113565;27;20046;-82
2022/07/23 01:16:53;;;;;;;5.40;3.83;;;;;;;18.95;69.05;100676.50;5093938;27;20038;-81
2022/07/23 01:19:18;;;;;;;5.78;4.25;;;;;;;18.96;69.10;100670.19;5108253;27;20039;-81
2022/07/23 01:21:47;;;;;;;7.07;4.18;;;;;;;19.01;69.43;100662.88;5111115;27;20497;-81
2022/07/23 01:24:13;;;;;;;5.75;3.60;;;;;;;19.04;69.15;100660.06;5112072;27;20027;-81
2022/07/23 01:26:47;;;;;;;6.07;4.28;;;;;;;19.07;69.29;100651.06;5107081;27;20028;-81
2022/07/23 01:29:14;;;;;;;5.00;3.63;;;;;;;19.10;69.16;100650.94;5111869;27;20445;-81
2022/07/23 01:31:40;;;;;;;5.43;3.97;;;;;;;19.13;68.68;100654.38;5109670;27;20030;-82
2022/07/23 01:34:07;;;;;;;4.65;3.72;;;;;;;19.22;68.80;100643.28;5112330;27;20026;-81
2022/07/23 01:36:34;;;;;;;5.65;4.18;;;;;;;19.34;68.48;100646.44;5092981;28;20044;-81
2022/07/23 01:38:59;;;;;;;5.35;4.20;;;;;;;19.38;68.56;100626.63;5112536;27;20065;-82
2022/07/23 01:41:25;;;;;;;5.43;3.97;;;;;;;19.39;68.33;100623.03;5094720;27;20429;-82
2022/07/23 01:43:50;;;;;;;4.68;3.80;;;;;;;19.36;67.82;100613.31;5110943;27;20036;-81
2022/07/23 01:46:16;;;;;;;6.10;4.40;;;;;;;19.35;67.90;100616.91;5129349;27;20042;-82
2022/07/23 01:48:45;;;;;;;6.40;4.28;;;;;;;19.31;68.13;100598.34;5089049;28;20063;-81
2022/07/23 01:51:29;;;;;;;4.32;3.80;;;;;;;19.33;67.82;100597.34;5128352;27;20054;-81
2022/07/23 01:54:01;;;;;;;4.70;3.80;;;;;;;19.39;67.95;100590.91;5089938;27;20035;-81
2022/07/23 01:56:26;;;;;;;5.63;4.00;;;;;;;19.46;67.41;100592.38;5095340;27;20122;-81
2022/07/23 01:58:52;;;;;;;5.30;3.80;;;;;;;19.55;67.14;100597.34;5093819;27;20118;-81
2022/07/23 02:01:18;;;;;;;4.90;4.15;;;;;;;19.60;66.88;100584.63;5109869;27;20027;-81
2022/07/23 02:03:43;;;;;;;4.93;4.00;;;;;;;19.60;67.16;100584.63;5099962;27;20038;-81
2022/07/23 02:06:09;;;;;;;5.40;3.42;;;;;;;19.56;66.97;100576.81;5127637;27;20061;-81
2022/07/23 02:08:34;;;;;;;4.47;3.65;;;;;;;19.54;66.99;100579.53;5072419;27;20126;-82
2022/07/23 02:11:00;;;;;;;5.55;4.10;;;;;;;19.52;67.14;100568.03;5094196;27;20497;-81
2022/07/23 02:13:26;;;;;;;6.10;3.70;;;;;;;19.52;66.71;100569.81;5095785;27;20057;-81
2022/07/23 02:15:53;;;;;;;5.60;4.40;;;;;;;19.56;66.87;100571.44;5128331;27;20111;-82
2022/07/23 02:18:18;;;;;;;4.68;3.78;;;;;;;19.63;67.05;100576.47;5079488;27;20031;-81
2022/07/23 02:20:44;;;;;;;4.70;3.30;;;;;;;19.69;67.06;100584.25;5092360;28;20031;-81
2022/07/23 02:23:09;;;;;;;6.78;4.22;;;;;;;19.72;67.13;100587.75;5087512;28;20100;-81
2022/07/23 02:25:35;;;;;;;6.28;3.65;;;;;;;19.76;66.74;100584.03;5111681;27;20053;-81
2022/07/23 02:28:01;;;;;;;7.10;3.97;;;;;;;19.86;66.21;100572.84;5109803;27;20031;-81
2022/07/23 02:30:26;;;;;;;4.47;3.80;;;;;;;19.92;66.35;100567.19;5128356;27;20023;-82
2022/07/23 02:32:51;;;;;;;7.78;4.25;;;;;;;19.98;66.22;100565.19;5093570;27;20113;-82
2022/07/23 02:35:17;;;;;;;5.45;4.10;;;;;;;20.03;66.37;100580.09;5107322;27;20031;-82
2022/07/23 02:37:42;;;;;;;5.07;3.80;;;;;;;20.06;65.85;100588.00;5125090;27;20043;-81
2022/07/23 02:40:08;;;;;;;5.70;4.13;;;;;;;20.11;65.26;100585.13;5128358;27;20031;-81
2022/07/23 02:42:36;;;;;;;5.68;3.88;;;;;;;20.13;65.26;100573.41;5108725;27;20036;-82
2022/07/23 02:45:04;;;;;;;4.60;4.00;;;;;;;20.16;65.64;100571.53;5092920;27;20382;-81
2022/07/23 02:47:31;;;;;;;5.63;3.80;;;;;;;20.14;65.50;100568.91;5088158;28;20043;-81
2022/07/23 02:49:58;;;;;;;6.88;3.88;;;;;;;20.19;65.22;100561.53;5105500;27;20024;-81
2022/07/23 02:52:23;;;;;;;4.78;3.85;;;;;;;20.21;65.19;100556.13;5110626;27;20030;-81
2022/07/23 02:54:50;;;;;;;4.47;3.47;;;;;;;20.19;65.42;100552.63;5110210;27;20383;-81
2022/07/23 02:57:15;;;;;;;4.60;3.80;;;;;;;20.16;65.00;100550.09;5108913;27;20042;-81
2022/07/23 02:59:41;;;;;;;6.90;3.50;;;;;;;20.16;64.92;100550.09;5111455;27;20501;-81
2022/07/23 03:02:06;;;;;;;5.13;3.42;;;;;;;20.09;65.38;100555.72;5109833;27;20028;-81
2022/07/23 03:04:32;;;;;;;5.40;3.90;;;;;;;20.02;65.76;100559.63;5107427;27;20031;-81
2022/07/23 03:06:57;;;;;;;6.10;3.78;;;;;;;20.03;66.05;100561.34;5093658;27;20034;-81
2022/07/23 03:09:24;;;;;;;5.93;3.63;;;;;;;20.00;66.18;100550.78;5076663;28;20050;-81
2022/07/23 03:11:51;;;;;;;5.20;3.72;;;;;;;20.00;66.09;100545.44;5102918;27;20077;-81
2022/07/23 03:14:18;;;;;;;9.35;4.13;;;;;;;19.95;66.57;100563.50;5104602;27;20038;-82
2022/07/23 03:16:43;;;;;;;5.30;4.20;;;;;;;19.88;67.07;100568.25;5108514;27;20051;-81
2022/07/23 03:19:09;;;;;;;6.60;3.92;;;;;;;19.91;66.42;100567.25;5094259;27;20084;-82
2022/07/23 03:21:34;;;;;;;4.85;4.13;;;;;;;19.91;66.46;100568.16;5126157;27;20019;-81
2022/07/23 03:24:00;;;;;;;8.40;4.28;;;;;;;19.82;67.04;100573.91;5093624;27;20035;-82
2022/07/23 03:26:25;;;;;;;4.80;3.92;;;;;;;19.83;66.63;100566.72;5094133;27;20027;-82
2022/07/23 03:28:52;;;;;;;5.20;3.70;;;;;;;19.85;66.14;100556.81;5091827;28;20538;-81
2022/07/23 03:31:18;;;;;;;7.03;4.18;;;;;;;19.82;67.01;100563.19;5109842;27;20484;-82
2022/07/23 03:33:43;;;;;;;6.05;4.18;;;;;;;19.76;67.71;100562.59;5107562;28;20091;-81
2022/07/23 03:36:09;;;;;;;5.60;4.32;;;;;;;19.73;67.92;100557.34;5109588;28;20035;-82
2022/07/23 03:38:37;;;;;;;6.20;4.07;;;;;;;19.70;68.19;100561.94;5103661;28;20043;-81
2022/07/23 03:41:03;;;;;;;9.90;3.97;;;;;;;19.59;68.75;100566.81;5093254;28;20036;-81
2022/07/23 03:43:28;;;;;;;6.55;4.70;;;;;;;19.49;69.88;100589.56;5091124;28;20092;-82
2022/07/23 03:45:54;;;;;;;5.30;4.40;;;;;;;19.34;70.46;100623.19;5093812;28;20028;-81
2022/07/23 03:48:19;;;;;;;7.97;4.25;;;;;;;19.24;70.96;100635.22;5074201;28;20032;-82
2022/07/23 03:50:44;;;;;;;6.25;4.38;;;;;;;19.08;72.22;100608.22;5127812;28;20493;-81
2022/07/23 03:53:10;;;;;;;8.23;5.22;;;;;;;18.66;74.95;100590.22;5111004;27;20107;-84
2022/07/23 03:55:35;;;;;;;6.50;5.70;;;;;;;18.31;76.63;100589.75;5117311;27;20079;-84
2022/07/23 03:58:01;;;;;;;12.50;4.93;;;;;;;18.05;81.28;100608.50;5118987;27;20054;-83
2022/07/23 04:00:26;;;;;;;6.15;5.40;;;;;;;17.76;84.87;100621.06;5122028;28;20059;-83
2022/07/23 04:02:52;;;;;;;15.98;4.97;;;;;;;17.64;86.47;100613.50;5105504;27;20042;-82
2022/07/23 04:05:17;;;;;;;6.72;4.55;;;;;;;17.62;87.31;100602.84;5107442;27;20065;-83
2022/07/23 04:07:43;;;;;;;9.60;5.50;;;;;;;17.53;91.59;100611.19;5124060;27;20038;-82
2022/07/23 04:10:09;;;;;;;6.80;4.72;;;;;;;17.42;93.58;100613.31;5108783;27;20055;-81
2022/07/23 04:12:35;;;;;;;7.70;5.00;;;;;;;17.35;94.48;100618.00;5123344;28;20024;-82
2022/07/23 04:15:01;;;;;;;8.45;5.13;;;;;;;17.32;93.28;100618.09;5127346;27;20023;-81
2022/07/23 04:17:28;;;;;;;13.35;6.00;;;;;;;17.21;94.90;100609.56;5105107;27;20027;-79
2022/07/23 04:19:53;;;;;;;8.50;5.82;;;;;;;17.18;94.55;100605.19;5142827;27;20504;-78
2022/07/23 04:22:21;;;;;;;11.20;6.13;;;;;;;17.20;94.12;100611.34;5104264;28;20032;-79
2022/07/23 04:24:47;;;;;;;8.95;5.65;;;;;;;17.25;94.26;100617.41;5124504;27;20130;-79
2022/07/23 04:27:12;;;;;;;10.15;6.53;;;;;;;17.28;95.19;100616.44;5123644;28;20066;-78
2022/07/23 04:29:39;;;;;;;6.75;5.03;;;;;;;17.38;94.54;100607.22;5109854;27;20024;-80
2022/07/23 04:32:04;;;;;;;15.35;6.97;;;;;;;17.46;94.95;100591.81;5103044;27;20031;-79
2022/07/23 04:34:30;;;;;;;8.85;5.97;;;;;;;17.47;93.56;100588.22;5110240;27;20076;-80
2022/07/23 04:36:55;;;;;;;11.63;6.30;;;;;;;17.50;92.61;100577.47;5124514;27;20037;-79
2022/07/23 04:39:21;;;;;;;8.85;6.40;;;;;;;17.44;93.09;100575.00;5108811;27;20135;-79
2022/07/23 04:41:47;;;;;;;11.60;6.78;;;;;;;17.42;96.12;100587.53;5121390;28;20108;-79
2022/07/23 04:44:13;;;;;;;8.45;6.63;;;;;;;17.44;94.85;100585.66;5107838;27;20031;-79
2022/07/23 04:46:39;;;;;;;8.93;6.18;;;;;;;17.52;96.06;100578.25;5121979;27;20069;-80
2022/07/23 04:49:05;;;;;;;8.20;6.55;;;;;;;17.55;93.58;100579.09;5124675;27;20360;-79
2022/07/23 04:51:32;;;;;;;9.60;7.20;;;;;;;17.50;93.80;100582.81;5107321;27;20051;-79
2022/07/23 04:53:57;;;;;;;8.30;6.90;;;;;;;17.44;94.36;100588.31;5143401;27;20027;-80
2022/07/23 04:56:22;;;;;;;8.63;7.07;;;;;;;17.46;95.02;100585.63;5103959;28;20058;-79
2022/07/23 04:58:48;;;;;;;7.07;6.20;;;;;;;17.49;94.95;100581.03;5144443;27;20035;-79
2022/07/23 05:01:14;;;;;;;8.57;6.72;;;;;;;17.61;93.85;100581.56;5107614;27;20046;-80
2022/07/23 05:03:39;;;;;;;9.77;7.35;;;;;;;17.71;93.10;100585.63;5108155;27;20023;-79
2022/07/23 05:06:04;;;;;;;8.40;7.35;;;;;;;17.86;91.79;100590.47;5108945;27;20059;-79
2022/07/23 05:08:30;;;;;;;7.88;6.68;;;;;;;17.94;90.17;100593.75;5142470;27;20033;-79
2022/07/23 05:10:57;;;;;;;8.50;7.53;;;;;;;18.00;88.59;100592.69;5094752;27;20035;-80
2022/07/23 05:13:22;;;;;;;11.88;7.88;;;;;;;18.00;88.79;100587.34;5125113;28;20046;-79
2022/07/23 05:15:50;;;;;;;9.80;8.52;;;;;;;18.01;87.90;100588.19;5144739;27;20035;-79
2022/07/23 05:18:16;;;;;;;10.68;8.10;;;;;;;18.07;88.75;100595.97;5110124;27;20046;-81
2022/07/23 05:20:41;;;;;;;10.98;8.68;;;;;;;18.10;87.35;100604.78;5103949;27;20035;-81
2022/07/23 05:23:07;;;;;;;10.52;8.82;;;;;;;18.12;87.09;100612.72;5124866;27;20042;-81
2022/07/23 05:25:33;;;;;;;12.27;9.95;;;;;;;18.06;87.07;100612.94;5088558;28;20119;-81
2022/07/23 05:27:59;;;;;;;11.18;9.50;;;;;;;18.08;86.98;100605.75;5127850;27;20043;-79
2022/07/23 05:30:25;;;;;;;15.00;9.70;;;;;;;18.01;85.68;100612.25;5109030;27;20032;-81
2022/07/23 05:32:56;;;;;;;12.13;9.52;;;;;;;17.96;86.42;100625.75;5126284;27;20027;-81
2022/07/23 05:35:21;;;;;;;15.63;10.15;;;;;;;17.99;85.85;100638.97;5125949;27;20105;-80
2022/07/23 05:38:01;;;;;;;12.20;9.50;;;;;;;18.03;86.29;100671.81;5106714;27;20047;-79
2022/07/23 05:40:29;;;;;;;12.05;9.75;;;;;;;18.15;85.51;100684.72;5143199;27;20038;-80
2022/07/23 05:42:54;;;;;;;11.38;10.18;;;;;;;18.11;84.71;100683.09;5110345;27;20057;-81
2022/07/23 05:45:20;;;;;;;11.48;10.18;;;;;;;18.16;84.80;100665.97;5136930;27;20035;-81
2022/07/23 05:47:47;;;;;;;10.85;9.75;;;;;;;18.33;84.42;100664.50;5143110;27;20042;-81
2022/07/23 05:50:18;;;;;;;13.70;10.02;;;;;;;18.47;83.89;100680.03;5125783;27;20823;-82
2022/07/23 05:52:49;;;;;;;10.23;9.23;;;;;;;18.55;82.19;100683.31;5126943;27;20042;-80
2022/07/23 05:55:31;;;;;;;10.48;9.48;;;;;;;18.47;82.22;100670.22;5124343;27;20027;-81
2022/07/23 05:57:58;;;;;;;13.60;9.50;;;;;;;18.53;81.65;100675.34;5124769;27;20042;-82
2022/07/23 06:00:24;;;;;;;9.73;8.82;;;;;;;18.52;80.20;100676.28;5111079;27;20034;-80
2022/07/23 06:02:49;;;;;;;9.98;9.05;;;;;;;18.42;80.88;100677.53;5106448;27;20028;-81
2022/07/23 06:05:16;;;;;;;9.75;8.45;;;;;;;18.51;79.71;100670.97;5126561;27;20060;-80
2022/07/23 06:07:42;;;;;;;9.02;8.23;;;;;;;18.47;80.16;100672.00;5109997;27;20028;-82
2022/07/23 06:10:08;;;;;;;10.07;9.07;;;;;;;18.51;79.85;100665.63;5125216;27;20044;-81
2022/07/23 06:12:34;;;;;;;11.73;8.32;;;;;;;18.67;79.09;100660.59;5086586;28;20024;-81
2022/07/23 06:15:00;;;;;;;9.52;8.30;;;;;;;18.72;78.01;100662.16;5107220;27;20045;-80
2022/07/23 06:17:26;;;;;;;10.35;8.85;;;;;;;18.94;77.59;100662.25;5125590;27;20512;-82
2022/07/23 06:19:52;;;;;;;8.48;7.55;;;;;;;18.97;76.81;100672.81;5124756;27;20015;-81
2022/07/23 06:22:17;;;;;;;8.27;7.22;;;;;;;19.03;76.55;100690.44;5108294;27;20035;-81
2022/07/23 06:24:43;;;;;;;8.18;7.38;;;;;;;19.02;75.24;100686.91;5093608;27;20128;-83
2022/07/23 06:27:08;;;;;;;10.45;8.18;;;;;;;19.08;77.17;100666.19;5108086;28;20043;-82
2022/07/23 06:29:34;;;;;;;8.75;7.85;;;;;;;19.11;74.70;100629.47;5109854;27;20046;-81
2022/07/23 06:31:59;;;;;;;8.35;7.40;;;;;;;19.26;75.14;100618.16;5106033;28;20035;-82
2022/07/23 06:34:24;;;;;;;8.77;7.20;;;;;;;19.45;74.13;100628.97;5110465;28;20032;-82
2022/07/23 06:36:50;;;;;;;9.63;7.78;;;;;;;19.55;73.17;100620.56;5108657;27;20057;-82
2022/07/23 06:39:15;;;;;;;9.60;7.93;;;;;;;19.57;72.63;100621.34;5124940;27;20031;-82
2022/07/23 06:41:44;;;;;;;10.40;8.27;;;;;;;19.67;71.96;100623.63;5107318;27;20041;-81
2022/07/23 06:44:09;;;;;;;9.27;8.45;;;;;;;19.80;70.98;100623.09;5141088;27;20099;-83
2022/07/23 06:46:35;;;;;;;9.23;8.35;;;;;;;19.99;71.77;100609.78;5108823;27;20027;-83
2022/07/23 06:49:00;;;;;;;8.85;7.97;;;;;;;20.26;70.48;100603.19;5107967;28;20134;-83
2022/07/23 06:51:28;;;;;;;8.43;7.57;;;;;;;20.36;69.84;100603.66;5123786;28;20019;-83
2022/07/23 06:53:53;;;;;;;14.10;10.27;;;;;;;20.27;68.26;100604.06;5143422;27;20053;-84
2022/07/23 06:56:19;;;;;;;11.20;8.73;;;;;;;20.17;67.81;100608.09;5106775;28;20031;-83
2022/07/23 06:58:45;;;;;;;12.30;8.80;;;;;;;20.24;68.10;100614.94;5144341;27;20042;-84
2022/07/23 07:01:10;;;;;;;11.43;8.65;;;;;;;20.53;68.09;100618.97;5105527;27;20055;-83
2022/07/23 07:03:35;;;;;;;9.57;8.57;;;;;;;20.65;66.62;100628.28;5126273;28;20042;-84
2022/07/23 07:06:02;;;;;;;9.05;8.25;;;;;;;20.60;67.16;100630.31;5142006;27;20034;-82
2022/07/23 07:08:27;;;;;;;9.30;8.23;;;;;;;20.61;65.93;100627.53;5124758;27;20039;-83
2022/07/23 07:10:52;;;;;;;10.25;9.20;;;;;;;20.76;66.26;100610.75;5122198;27;20039;-82
2022/07/23 07:13:18;;;;;;;10.90;9.18;;;;;;;21.28;65.46;100627.97;5101088;28;20048;-84
2022/07/23 07:15:43;;;;;;;9.10;8.30;;;;;;;21.25;62.96;100631.69;5123447;27;20042;-84
2022/07/23 07:18:09;;;;;;;10.05;9.15;;;;;;;21.39;63.66;100631.03;5117117;27;20036;-84
2022/07/23 07:20:34;;;;;;;10.48;9.48;;;;;;;21.40;62.60;100633.63;5117678;27;20035;-84
2022/07/23 07:22:59;;;;;;;9.93;8.95;;;;;;;21.34;63.15;100617.78;5130125;27;20035;-84
2022/07/23 07:25:25;;;;;;;9.70;8.10;;;;;;;21.53;61.56;100627.66;5088965;27;20058;-84
2022/07/23 07:27:50;;;;;;;9.75;8.90;;;;;;;21.56;61.75;100627.47;5112344;28;20031;-84
2022/07/23 07:30:16;;;;;;;10.60;9.70;;;;;;;21.75;62.20;100624.75;5098165;27;20038;-84
2022/07/23 07:32:42;;;;;;;9.02;7.85;;;;;;;21.95;60.55;100621.03;5111373;28;20040;-84
2022/07/23 07:35:08;;;;;;;9.05;8.23;;;;;;;21.93;60.84;100610.38;5114497;27;20042;-84
2022/07/23 07:37:34;;;;;;;10.43;7.90;;;;;;;22.04;59.75;100609.81;5113326;28;20046;-84
2022/07/23 07:39:59;;;;;;;8.68;7.85;;;;;;;;;;5110767;28;20039;-84
2022/07/23 07:42:24;;;;;;;11.10;8.65;;;;;;;22.46;60.10;100609.38;5110659;28;20036;-84
2022/07/23 07:44:50;;;;;;;8.45;7.65;;;;;;;22.78;59.28;100616.63;5074811;28;20036;-84
2022/07/23 07:47:15;;;;;;;8.18;7.57;;;;;;;22.82;58.61;100610.09;5132831;27;20080;-84
2022/07/23 07:49:42;;;;;;;9.20;8.40;;;;;;;23.02;58.29;100603.63;5129989;27;20065;-84
2022/07/23 07:52:07;;;;;;;9.02;8.32;;;;;;;23.16;57.61;100607.28;5112569;28;20031;-84
2022/07/23 07:54:32;;;;;;;8.70;7.93;;;;;;;23.40;57.84;100601.44;5097192;28;20046;-84
2022/07/23 07:56:58;;;;;;;8.85;8.07;;;;;;;23.57;56.34;100605.81;5129995;28;20043;-84
2022/07/23 07:59:23;;;;;;;9.65;8.85;;;;;;;23.72;56.48;100598.69;5097116;28;20039;-85
2022/07/23 08:01:48;;;;;;;9.20;8.50;;;;;;;24.17;56.77;100596.84;5127136;28;20070;-84
2022/07/23 08:04:14;;;;;;;9.38;8.52;;;;;;;24.60;55.91;100594.16;5112537;28;20534;-84
2022/07/23 08:06:39;;;;;;;11.15;8.05;;;;;;;24.83;54.76;100590.84;5112301;28;20390;-84
2022/07/23 08:09:04;;;;;;;9.48;8.40;;;;;;;24.88;53.07;100591.44;5130744;28;20031;-84
2022/07/23 08:11:30;;;;;;;8.65;7.85;;;;;;;24.56;53.15;100606.13;5112902;28;20028;-84
2022/07/23 08:13:55;;;;;;;8.93;8.13;;;;;;;24.47;54.75;100611.16;5111624;28;20031;-84
2022/07/23 08:16:21;;;;;;;8.45;7.75;;;;;;;24.51;54.39;100628.00;5133361;28;20051;-84
2022/07/23 08:18:46;;;;;;;10.35;9.55;;;;;;;24.59;53.25;100630.22;5129462;28;20042;-84
2022/07/23 08:21:11;;;;;;;10.02;9.32;;;;;;;24.36;53.58;100645.97;5131414;28;20491;-84
2022/07/23 08:23:37;;;;;;;10.85;9.90;;;;;;;24.22;53.64;100635.19;5131089;28;20039;-84
2022/07/23 08:26:02;;;;;;;9.73;8.98;;;;;;;24.14;53.28;100635.66;5130201;28;20027;-83
2022/07/23 08:28:27;;;;;;;10.48;9.48;;;;;;;24.27;53.48;100639.31;5095521;28;20040;-83
2022/07/23 08:30:54;;;;;;;10.25;9.45;;;;;;;24.18;52.94;100631.81;5132095;28;20055;-84
2022/07/23 08:33:19;;;;;;;10.18;9.38;;;;;;;24.21;53.08;100633.47;5129366;28;20039;-83
2022/07/23 08:35:47;;;;;;;9.65;8.82;;;;;;;24.11;54.12;100634.97;5094137;28;20040;-83
2022/07/23 08:38:17;;;;;;;9.65;9.00;;;;;;;24.15;53.67;100637.38;5094446;28;20077;-83
2022/07/23 08:40:48;;;;;;;11.20;10.45;;;;;;;24.31;53.32;100626.50;5132376;27;20035;-83
2022/07/23 08:43:18;;;;;;;10.80;10.00;;;;;;;24.66;52.75;100615.38;5109420;27;20123;-83
2022/07/23 08:45:46;;;;;;;11.35;10.50;;;;;;;24.89;51.01;100617.47;5115880;27;20027;-83
2022/07/23 08:48:13;;;;;;;11.82;10.90;;;;;;;25.16;50.91;100615.81;5133840;27;20092;-83
2022/07/23 08:50:43;;;;;;;10.85;10.15;;;;;;;25.53;50.58;100622.31;5132055;27;20120;-83
2022/07/23 08:53:09;;;;;;;12.98;12.07;;;;;;;25.25;50.31;100624.16;5128275;27;20085;-83
2022/07/23 08:55:34;;;;;;;10.82;9.90;;;;;;;25.13;51.19;100628.50;5133983;27;20031;-83
2022/07/23 08:57:59;;;;;;;10.50;9.60;;;;;;;24.86;51.72;100638.38;5097849;28;20043;-83
2022/07/23 09:00:25;;;;;;;12.15;11.27;;;;;;;24.80;51.08;100634.25;5099265;27;20064;-83
2022/07/23 09:02:50;;;;;;;11.40;10.50;;;;;;;24.72;51.24;100639.28;5130682;27;20044;-82
2022/07/23 09:05:18;;;;;;;10.98;10.18;;;;;;;24.41;52.08;100632.22;5133636;27;20038;-83
2022/07/23 09:08:04;;;;;;;10.52;9.73;;;;;;;24.68;53.17;100640.41;5097149;27;20039;-82
2022/07/23 09:10:29;;;;;;;11.30;10.45;;;;;;;24.89;51.25;100639.06;5111467;27;20051;-82
2022/07/23 09:12:55;;;;;;;13.52;12.63;;;;;;;25.26;50.91;100636.72;5132147;27;20038;-82
2022/07/23 09:15:20;;;;;;;11.07;10.27;;;;;;;25.31;51.70;100645.38;5080180;27;20031;-82
2022/07/23 09:17:46;;;;;;;11.85;10.88;;;;;;;25.28;51.71;100664.50;5131330;27;20052;-82
2022/07/23 09:20:16;;;;;;;11.00;10.30;;;;;;;24.95;52.62;100653.16;5131233;27;20035;-82
2022/07/23 09:22:51;;;;;;;12.05;11.25;;;;;;;24.96;52.19;100671.06;5128715;27;20070;-82
2022/07/23 09:25:18;;;;;;;10.75;9.98;;;;;;;24.51;53.28;100676.56;5131309;27;20062;-82
2022/07/23 09:27:55;;;;;;;10.30;9.50;;;;;;;24.15;54.44;100676.97;5128930;27;20393;-82
2022/07/23 09:30:23;;;;;;;11.68;10.88;;;;;;;23.93;55.23;100691.72;5126320;27;20463;-82
2022/07/23 09:33:12;;;;;;;9.13;8.35;;;;;;;23.63;55.82;100680.88;5113334;27;20474;-82
2022/07/23 09:35:53;;;;;;;10.38;9.68;;;;;;;23.47;57.53;100674.66;5127749;27;20074;-82
2022/07/23 09:38:21;;;;;;;9.10;8.35;;;;;;;23.42;57.89;100674.91;5108705;27;20066;-82
2022/07/23 09:41:04;;;;;;;9.93;9.13;;;;;;;23.11;57.99;100678.50;5112249;27;20062;-82
2022/07/23 09:43:29;;;;;;;10.25;9.35;;;;;;;23.00;58.85;100688.97;5104752;27;20054;-82
2022/07/23 09:46:23;;;;;;;9.73;9.02;;;;;;;22.85;60.57;100709.50;5129847;27;20117;-82
2022/07/23 09:48:49;;;;;;;11.60;9.82;;;;;;;22.65;60.87;100703.38;5109746;27;20035;-82
2022/07/23 09:51:18;;;;;;;11.75;10.65;;;;;;;22.51;62.32;100708.63;5108485;27;20386;-82
2022/07/23 09:53:43;;;;;;;9.82;8.98;;;;;;;22.54;62.54;100711.16;5131340;27;20035;-82
2022/07/23 09:56:10;;;;;;;10.18;9.32;;;;;;;22.89;62.56;100720.00;5128090;27;20095;-82
2022/07/23 09:58:43;;;;;;;9.35;8.65;;;;;;;23.34;59.91;100717.56;5130199;27;20090;-82
2022/07/23 10:01:09;;;;;;;10.68;9.88;;;;;;;23.40;59.40;100723.50;5111314;27;20038;-82
2022/07/23 10:03:35;;;;;;;11.55;10.52;;;;;;;23.70;58.18;100755.00;5109605;28;20049;-82
2022/07/23 10:06:34;;;;;;;10.43;9.38;;;;;;;24.04;57.55;100710.81;5114641;27;20122;-82
2022/07/23 10:09:24;;;;;;;11.23;10.18;;;;;;;24.49;55.86;100717.13;5123780;27;20047;-83
2022/07/23 10:13:11;;;;;;;11.00;10.15;;;;;;;24.89;55.08;100730.00;5107539;27;20034;-83
2022/07/23 10:15:07;;;;;;;10.73;9.80;;;;;;;25.19;55.10;100727.19;5096789;27;20172;-83
2022/07/23 10:17:33;;;;;;;11.20;9.93;;;;;;;25.15;53.92;100731.00;5110008;27;20497;-82
2022/07/23 10:19:59;;;;;;;11.65;10.75;;;;;;;25.17;53.73;100736.38;5129881;27;20035;-83
2022/07/23 10:22:39;;;;;;;10.95;10.05;;;;;;;24.86;53.83;100731.06;5126541;27;20050;-83
2022/07/23 10:25:15;;;;;;;11.80;10.87;;;;;;;24.68;54.53;100727.66;5128745;27;20039;-83
2022/07/23 10:28:04;;;;;;;10.93;10.13;;;;;;;24.88;54.58;100733.66;5119976;27;20039;-83
2022/07/23 10:30:51;;;;;;;12.50;11.60;;;;;;;24.33;53.86;100740.56;5120033;27;20085;-83
2022/07/23 10:33:45;;;;;;;12.32;11.43;;;;;;;24.41;54.41;100735.56;5083783;28;20042;-83
2022/07/23 10:36:20;;;;;;;13.70;12.45;;;;;;;24.53;54.25;100754.72;5124635;27;20122;-83
2022/07/23 10:38:58;;;;;;;14.32;13.23;;;;;;;24.32;54.32;100762.25;5128690;27;20036;-83
2022/07/23 10:41:41;;;;;;;11.45;10.48;;;;;;;24.30;54.35;100748.00;5074350;27;20051;-83
2022/07/23 10:44:12;;;;;;;14.02;12.90;;;;;;;24.04;54.78;100759.34;5105491;27;20039;-82
2022/07/23 10:49:44;;;;;;;13.05;11.68;;;;;;;24.21;54.26;100755.66;5127344;27;20087;-82
2022/07/23 10:52:26;;;;;;;12.43;11.43;;;;;;;24.62;54.38;100743.34;5111133;27;20062;-83
2022/07/23 10:54:54;;;;;;;13.30;11.98;;;;;;;24.92;53.33;100751.41;5130285;27;20035;-82
2022/07/23 10:57:24;;;;;;;12.65;11.55;;;;;;;24.87;52.42;100748.97;5108908;27;20070;-82
2022/07/23 11:00:09;;;;;;;11.65;10.55;;;;;;;24.84;53.11;100742.91;5128567;27;20114;-82
2022/07/23 11:02:35;;;;;;;12.98;11.82;;;;;;;25.12;52.25;100747.41;5123960;27;20043;-83
2022/07/23 11:05:05;;;;;;;12.85;11.88;;;;;;;25.18;52.08;100749.78;5128373;27;20046;-83
2022/07/23 11:07:31;;;;;;;12.80;11.70;;;;;;;25.04;52.48;100766.81;5109124;28;20374;-83
2022/07/23 11:09:56;;;;;;;11.50;10.50;;;;;;;24.86;53.09;100754.47;5129276;27;20034;-82
2022/07/23 11:12:27;;;;;;;11.48;10.57;;;;;;;24.47;53.21;100756.84;5126661;27;20474;-83
2022/07/23 11:15:10;;;;;;;11.77;10.88;;;;;;;24.28;54.28;100753.47;5109857;27;20058;-83
2022/07/23 11:17:59;;;;;;;10.90;9.77;;;;;;;24.08;54.97;100748.38;5103898;27;20039;-83
2022/07/23 11:20:25;;;;;;;11.15;10.25;;;;;;;23.86;55.11;100759.56;5124387;27;20043;-82
2022/07/23 11:22:55;;;;;;;9.98;8.98;;;;;;;23.61;56.16;100766.34;5127380;27;20035;-83
2022/07/23 11:25:20;;;;;;;9.63;8.73;;;;;;;23.37;57.05;100773.94;5110784;27;20046;-82
2022/07/23 11:27:47;;;;;;;10.35;9.45;;;;;;;23.41;57.62;100771.00;5126049;27;20405;-82